الصفحة الرئيسية
METAR-TAF:

METAR-TAF

مطار :

مطار دون موينغ

بانكوك, تايلاند

دائرة عرض: 13-54-45N, خط طول: 100-36-24E, ارتفاع: 4 متر

مراقبة الطقس الحالي

تاريخ ووقت الإصدار 32 دقيقة قبل الساعة 19:00UTC
ريح 6 عقدة من الغرب/الجنوب الغربي
درجة الحرارة 30°درجة مئوية
الرطوبة 70%
ضغط 1006 hPa
الرؤية 10 كم أو أكثر
غيوم قليلة على ارتفاع 3000 قدم

METAR: VTBD 141900Z 24006KT 9999 FEW030 30/24 Q1006 NOSIG

زمن: 02:32 (19:32 UTC)

توقعات

تاريخ ووقت الإصدار 2ساعات و 32 دقيقة قبل الساعة 17:00UTC
التوقعات صالحة من14 الساعة 18 UTC إلى 15 الساعة 24 UTC
ريح 8 عقدة من الجنوب الغربي
الرؤية 10 كم أو أكثر
غيوم قليلة على ارتفاع 2000 قدم
مؤقت
من 15 الساعة 12 UTC إلى 15 الساعة 16 UTC
ريح 15 عقدةمن اتجاهات متغيرة
الرؤية: 3000 متر
غيوم قليلة على ارتفاع 1800 قدم, مزنة ركامية.
غيوم متفرقة على ارتفاع 3000 قدم
غيوم مفككة على ارتفاع 10000 قدم
عاصفة رعدية, مطر,

TAF: VTBD 141700Z 1418/1524 23008KT 9999 FEW020 TEMPO 1512/1516 VRB15KT 3000 TSRA FEW018CB SCT030 BKN100

أرصاد الطقس والتوقعات من أكثر من 4000 مطار (تقارير الطقس للمطار METAR والتنبؤ بالطقس بالمطارTAF).

المحطات المتاحة هي النقط الصفراء والحمراء على الخريطة.

حرك المؤشر فوق النقطة لمعرفة اسم المحطة.

ثم انقر لمعرفة أرصاد وتوقعات الطقس.

لتغيير الخارطة: اضغط على الأزرار الخضراء مع رمز الصليب الأسود للتكبير. على الزر الأخضر مع شرطة للتصغير، أو على الأسهم الخضراء للخرائط المجاورة.


METAR-TAF: